Time;durP1;ratioP1;P1;durP2;ratioP2;P2;SDS_P1;SDS_P2;PMS_P1;PMS_P2;Temp;Humidity;BMP_temperature;BMP_pressure;BME280_temperature;BME280_humidity;BME280_pressure;Samples;Min_cycle;Max_cycle;Signal;HPM_P1;HPM_P2
2020/12/05 00:01:23;;;;;;;2.00;1.10;;;;;;;;;;5036139;28;20238;-76
2020/12/05 00:04:28;;;;;;;5.30;1.50;;;;;;;;;;5056734;28;20296;-81
2020/12/05 00:07:33;;;;;;;3.33;1.40;;;;;;;;;;5047123;28;20199;-79
2020/12/05 00:10:38;;;;;;;4.13;1.53;;;;;;;;;;5051946;28;20309;-79
2020/12/05 00:13:42;;;;;;;2.67;1.50;;;;;;;;;;5062700;28;20232;-81
2020/12/05 00:16:51;;;;;;;2.33;1.40;;;;;;;;;;5073127;28;20229;-79
2020/12/05 00:19:55;;;;;;;7.60;2.10;;;;;;;;;;5072727;28;20218;-80
2020/12/05 00:23:00;;;;;;;6.10;2.20;;;;;;;;;;5039475;28;20369;-79
2020/12/05 00:26:05;;;;;;;4.30;1.67;;;;;;;;;;5063555;28;20249;-80
2020/12/05 00:29:10;;;;;;;2.10;1.20;;;;;;;;;;5052421;28;20206;-80
2020/12/05 00:32:16;;;;;;;2.80;1.50;;;;;;;;;;5047861;28;20659;-79
2020/12/05 00:35:20;;;;;;;3.10;1.57;;;;;;;;;;5050447;28;20207;-79
2020/12/05 00:38:25;;;;;;;1.40;1.00;;;;;;;;;;5052917;28;20203;-80
2020/12/05 00:41:29;;;;;;;2.97;1.33;;;;;;;;;;5062089;28;20263;-80
2020/12/05 00:44:34;;;;;;;5.13;1.60;;;;;;;;;;5059147;28;20215;-79
2020/12/05 00:47:40;;;;;;;2.90;1.37;;;;;;;;;;5053601;28;20666;-80
2020/12/05 00:50:45;;;;;;;3.03;1.40;;;;;;;;;;5052035;28;20215;-79
2020/12/05 00:53:50;;;;;;;3.57;1.60;;;;;;;;;;5052402;28;20222;-80
2020/12/05 00:56:57;;;;;;;4.23;1.50;;;;;;;;;;5052407;28;20251;-79
2020/12/05 01:00:03;;;;;;;6.43;2.93;;;;;;;;;;5055776;28;20542;-79
2020/12/05 01:03:08;;;;;;;3.67;1.90;;;;;;;;;;5046914;28;20245;-79
2020/12/05 01:06:13;;;;;;;2.87;1.30;;;;;;;;;;5062783;28;20203;-79
2020/12/05 01:09:18;;;;;;;5.90;1.80;;;;;;;;;;5063840;28;20257;-79
2020/12/05 01:12:24;;;;;;;5.97;2.03;;;;;;;;;;5057232;28;20253;-80
2020/12/05 01:15:29;;;;;;;10.50;3.73;;;;;;;;;;5055971;28;20675;-80
2020/12/05 01:18:34;;;;;;;12.23;3.40;;;;;;;;;;5054497;28;20637;-79
2020/12/05 01:21:39;;;;;;;9.57;2.80;;;;;;;;;;5076449;28;20269;-79
2020/12/05 01:24:44;;;;;;;4.83;2.03;;;;;;;;;;5039080;28;20204;-78
2020/12/05 01:27:49;;;;;;;5.00;2.17;;;;;;;;;;5070598;28;20195;-78
2020/12/05 01:30:54;;;;;;;3.47;1.97;;;;;;;;;;5038344;28;20226;-79
2020/12/05 01:34:02;;;;;;;2.90;1.20;;;;;;;;;;5074478;28;20271;-79
2020/12/05 01:37:07;;;;;;;2.03;1.30;;;;;;;;;;5074946;28;20247;-78
2020/12/05 01:40:12;;;;;;;2.63;1.40;;;;;;;;;;5056629;28;20187;-77
2020/12/05 01:43:17;;;;;;;2.43;1.20;;;;;;;;;;5062385;28;20225;-78
2020/12/05 01:46:32;;;;;;;1.67;1.17;;;;;;;;;;5059910;28;20688;-78
2020/12/05 01:49:38;;;;;;;2.27;1.20;;;;;;;;;;5080904;28;20202;-77
2020/12/05 01:52:44;;;;;;;1.93;1.20;;;;;;;;;;5084766;28;20705;-77
2020/12/05 01:55:49;;;;;;;2.47;1.20;;;;;;;;;;5075239;28;20199;-77
2020/12/05 01:58:54;;;;;;;2.13;1.20;;;;;;;;;;5079756;28;20207;-77
2020/12/05 02:02:01;;;;;;;1.50;1.10;;;;;;;;;;5083474;28;20205;-79
2020/12/05 02:05:11;;;;;;;5.83;1.33;;;;;;;;;;5076296;28;20207;-78
2020/12/05 02:08:20;;;;;;;2.33;1.40;;;;;;;;;;5071849;28;20188;-78
2020/12/05 02:11:28;;;;;;;2.87;1.30;;;;;;;;;;5039185;28;20202;-77
2020/12/05 02:14:35;;;;;;;1.60;1.07;;;;;;;;;;5066723;28;20215;-79
2020/12/05 02:17:41;;;;;;;2.67;1.10;;;;;;;;;;5057198;28;20211;-79
2020/12/05 02:20:48;;;;;;;2.43;1.53;;;;;;;;;;5057893;28;20202;-78
2020/12/05 02:23:54;;;;;;;1.57;0.97;;;;;;;;;;5058611;28;20314;-78
2020/12/05 02:26:58;;;;;;;2.37;1.10;;;;;;;;;;5054825;28;20200;-77
2020/12/05 02:30:04;;;;;;;4.33;1.47;;;;;;;;;;5061961;28;20292;-77
2020/12/05 02:33:09;;;;;;;2.70;1.03;;;;;;;;;;5068487;28;20238;-77
2020/12/05 02:36:14;;;;;;;1.30;0.90;;;;;;;;;;5070470;28;20285;-77
2020/12/05 02:39:20;;;;;;;1.77;1.10;;;;;;;;;;5084383;28;20210;-77
2020/12/05 02:42:25;;;;;;;2.37;1.00;;;;;;;;;;5079074;28;20237;-80
2020/12/05 02:45:30;;;;;;;2.43;1.20;;;;;;;;;;5063569;28;20249;-76
2020/12/05 02:48:35;;;;;;;1.87;1.20;;;;;;;;;;5061026;28;20573;-78
2020/12/05 02:51:40;;;;;;;4.40;1.23;;;;;;;;;;5083150;28;20280;-77
2020/12/05 02:54:47;;;;;;;1.90;1.03;;;;;;;;;;5061135;28;20249;-79
2020/12/05 02:57:52;;;;;;;1.43;1.10;;;;;;;;;;5039568;28;20215;-79
2020/12/05 03:00:57;;;;;;;1.10;0.73;;;;;;;;;;5055063;28;20208;-80
2020/12/05 03:04:02;;;;;;;2.83;1.00;;;;;;;;;;5066281;28;20276;-78
2020/12/05 03:07:07;;;;;;;1.70;0.90;;;;;;;;;;5057728;28;20202;-79
2020/12/05 03:10:14;;;;;;;2.87;0.97;;;;;;;;;;5061477;28;20781;-79
2020/12/05 03:13:18;;;;;;;2.73;1.07;;;;;;;;;;5060107;28;20366;-80
2020/12/05 03:16:23;;;;;;;1.50;1.00;;;;;;;;;;5064172;28;20301;-80
2020/12/05 03:19:28;;;;;;;1.87;0.80;;;;;;;;;;5077567;28;20206;-80
2020/12/05 03:22:33;;;;;;;1.33;0.83;;;;;;;;;;5049380;28;20271;-79
2020/12/05 03:25:38;;;;;;;1.87;0.83;;;;;;;;;;5054853;28;20727;-79
2020/12/05 03:28:44;;;;;;;2.57;1.10;;;;;;;;;;5068274;28;20226;-79
2020/12/05 03:31:50;;;;;;;2.27;0.93;;;;;;;;;;5064261;28;20242;-80
2020/12/05 03:34:57;;;;;;;1.40;0.90;;;;;;;;;;5067834;28;20230;-78
2020/12/05 03:38:02;;;;;;;1.30;0.80;;;;;;;;;;5056025;28;20227;-79
2020/12/05 03:41:08;;;;;;;22.93;1.20;;;;;;;;;;5072410;28;20206;-80
2020/12/05 03:44:12;;;;;;;1.33;0.80;;;;;;;;;;5071321;28;20250;-79
2020/12/05 03:47:17;;;;;;;1.77;0.83;;;;;;;;;;5045652;28;20338;-80
2020/12/05 03:50:22;;;;;;;4.23;1.00;;;;;;;;;;5061987;28;20642;-80
2020/12/05 03:53:27;;;;;;;2.33;1.10;;;;;;;;;;5035488;28;20289;-79
2020/12/05 03:56:32;;;;;;;1.97;1.10;;;;;;;;;;5074545;28;20213;-79
2020/12/05 03:59:37;;;;;;;1.30;0.93;;;;;;;;;;5056731;28;20209;-79
2020/12/05 04:02:42;;;;;;;2.40;1.00;;;;;;;;;;5055674;28;20241;-79
2020/12/05 04:05:47;;;;;;;1.37;1.03;;;;;;;;;;5070647;28;20221;-80
2020/12/05 04:08:51;;;;;;;2.17;1.20;;;;;;;;;;5068009;28;20197;-78
2020/12/05 04:11:57;;;;;;;3.17;1.20;;;;;;;;;;5068565;28;20267;-79
2020/12/05 04:15:03;;;;;;;1.37;0.90;;;;;;;;;;5036314;28;20636;-79
2020/12/05 04:18:08;;;;;;;1.50;0.90;;;;;;;;;;5054545;28;20223;-79
2020/12/05 04:21:13;;;;;;;1.53;0.97;;;;;;;;;;5066820;28;21149;-80
2020/12/05 04:24:18;;;;;;;2.43;1.17;;;;;;;;;;5054376;28;20620;-79
2020/12/05 04:27:24;;;;;;;1.67;1.03;;;;;;;;;;5053302;28;20675;-79
2020/12/05 04:30:29;;;;;;;1.37;0.90;;;;;;;;;;5055167;28;20202;-80
2020/12/05 04:33:33;;;;;;;2.57;1.20;;;;;;;;;;5062782;28;20309;-80
2020/12/05 04:36:38;;;;;;;2.00;1.10;;;;;;;;;;5070701;28;20241;-79
2020/12/05 04:39:43;;;;;;;0.87;0.73;;;;;;;;;;5056075;28;20237;-79
2020/12/05 04:42:49;;;;;;;3.13;1.00;;;;;;;;;;5076365;28;20222;-79
2020/12/05 04:45:54;;;;;;;1.50;0.97;;;;;;;;;;5069619;28;20215;-80
2020/12/05 04:49:01;;;;;;;1.63;0.90;;;;;;;;;;5051857;28;20337;-79
2020/12/05 04:52:14;;;;;;;2.00;0.90;;;;;;;;;;5068129;28;20226;-79
2020/12/05 04:55:22;;;;;;;2.57;1.00;;;;;;;;;;5078995;28;20206;-80
2020/12/05 04:58:28;;;;;;;1.90;0.90;;;;;;;;;;5068744;28;20690;-79
2020/12/05 05:01:35;;;;;;;1.67;1.20;;;;;;;;;;5065967;28;20206;-79
2020/12/05 05:04:40;;;;;;;2.23;1.20;;;;;;;;;;5057163;28;20207;-79
2020/12/05 05:07:48;;;;;;;2.50;1.30;;;;;;;;;;5059996;28;20202;-79
2020/12/05 05:11:07;;;;;;;1.77;0.93;;;;;;;;;;5055411;28;20234;-79
2020/12/05 05:14:13;;;;;;;2.13;1.13;;;;;;;;;;5059336;28;20231;-79
2020/12/05 05:17:18;;;;;;;1.57;0.93;;;;;;;;;;5057489;28;20657;-79
2020/12/05 05:20:23;;;;;;;1.90;0.90;;;;;;;;;;5061747;28;20207;-79
2020/12/05 05:23:30;;;;;;;4.07;1.13;;;;;;;;;;5056446;28;20253;-78
2020/12/05 05:26:35;;;;;;;2.77;1.00;;;;;;;;;;5057677;28;20666;-79
2020/12/05 05:29:42;;;;;;;2.00;1.00;;;;;;;;;;5059081;28;20270;-79
2020/12/05 05:32:49;;;;;;;1.17;0.90;;;;;;;;;;5045921;28;20303;-78
2020/12/05 05:35:54;;;;;;;1.70;1.00;;;;;;;;;;5068476;28;20253;-79
2020/12/05 05:39:00;;;;;;;2.50;1.10;;;;;;;;;;5058734;28;20241;-80
2020/12/05 05:42:06;;;;;;;2.40;1.00;;;;;;;;;;5059949;28;20207;-80
2020/12/05 05:45:18;;;;;;;2.47;1.00;;;;;;;;;;5075914;28;20229;-79
2020/12/05 05:48:23;;;;;;;1.97;0.93;;;;;;;;;;5082174;28;20222;-79
2020/12/05 05:51:44;;;;;;;3.00;1.00;;;;;;;;;;5069883;28;20218;-78
2020/12/05 05:54:54;;;;;;;2.00;0.90;;;;;;;;;;5067588;28;20201;-79
2020/12/05 05:57:59;;;;;;;1.53;0.80;;;;;;;;;;5077659;28;20280;-79
2020/12/05 06:01:05;;;;;;;1.27;0.90;;;;;;;;;;5057894;28;20278;-79
2020/12/05 06:04:14;;;;;;;2.10;1.20;;;;;;;;;;5058388;28;20317;-79
2020/12/05 06:07:19;;;;;;;3.33;1.53;;;;;;;;;;5040073;28;20226;-80
2020/12/05 06:10:25;;;;;;;62.43;19.27;;;;;;;;;;5065466;28;20199;-78
2020/12/05 06:13:30;;;;;;;40.93;12.87;;;;;;;;;;5080534;28;20616;-78
2020/12/05 06:16:40;;;;;;;30.33;9.67;;;;;;;;;;5073775;28;20227;-77
2020/12/05 06:19:46;;;;;;;31.57;10.13;;;;;;;;;;5083427;28;20290;-77
2020/12/05 06:22:53;;;;;;;26.13;8.47;;;;;;;;;;5064272;28;20226;-79
2020/12/05 06:26:03;;;;;;;21.47;7.67;;;;;;;;;;5066665;28;20207;-79
2020/12/05 06:29:07;;;;;;;14.97;5.27;;;;;;;;;;5058460;28;20198;-79
2020/12/05 06:32:13;;;;;;;7.87;3.50;;;;;;;;;;5071691;28;20242;-78
2020/12/05 06:35:36;;;;;;;10.77;4.83;;;;;;;;;;5076835;28;20245;-78
2020/12/05 06:38:41;;;;;;;10.40;4.40;;;;;;;;;;5059710;28;20334;-79
2020/12/05 06:41:47;;;;;;;8.07;3.80;;;;;;;;;;5071954;28;20241;-79
2020/12/05 06:44:52;;;;;;;5.03;2.70;;;;;;;;;;5079185;28;20214;-77
2020/12/05 06:48:18;;;;;;;6.27;2.90;;;;;;;;;;5070152;28;20210;-77
2020/12/05 06:51:24;;;;;;;4.77;2.00;;;;;;;;;;5068700;28;20360;-79
2020/12/05 06:54:49;;;;;;;4.90;1.73;;;;;;;;;;5080616;28;20202;-78
2020/12/05 06:58:01;;;;;;;3.50;1.70;;;;;;;;;;5082289;28;20241;-78
2020/12/05 07:01:06;;;;;;;3.87;2.00;;;;;;;;;;5069329;28;20215;-80
2020/12/05 07:04:24;;;;;;;3.97;1.77;;;;;;;;;;5067317;28;20620;-80
2020/12/05 07:07:32;;;;;;;7.37;2.43;;;;;;;;;;5069035;28;20211;-79
2020/12/05 07:10:47;;;;;;;6.80;3.00;;;;;;;;;;5060106;28;20297;-80
2020/12/05 07:13:52;;;;;;;4.67;2.00;;;;;;;;;;5064314;28;20238;-79
2020/12/05 07:16:57;;;;;;;3.70;1.67;;;;;;;;;;5068436;28;20348;-80
2020/12/05 07:20:08;;;;;;;11.13;5.07;;;;;;;;;;5067153;28;20178;-78
2020/12/05 07:23:13;;;;;;;6.33;3.07;;;;;;;;;;5059205;28;20293;-80
2020/12/05 07:26:18;;;;;;;4.70;2.27;;;;;;;;;;5071442;28;20222;-81
2020/12/05 07:29:23;;;;;;;5.53;2.00;;;;;;;;;;5060883;28;20222;-81
2020/12/05 07:32:34;;;;;;;6.67;2.50;;;;;;;;;;5071067;28;20226;-80
2020/12/05 07:35:44;;;;;;;7.50;2.20;;;;;;;;;;5059463;28;20211;-80
2020/12/05 07:38:49;;;;;;;5.00;2.80;;;;;;;;;;5055695;28;20578;-81
2020/12/05 07:41:55;;;;;;;7.77;3.40;;;;;;;;;;5064404;28;20215;-81
2020/12/05 07:45:03;;;;;;;8.80;3.93;;;;;;;;;;5056664;28;20202;-81
2020/12/05 07:48:12;;;;;;;8.50;4.20;;;;;;;;;;5062832;28;20218;-81
2020/12/05 07:51:19;;;;;;;9.00;3.50;;;;;;;;;;5060944;28;20219;-80
2020/12/05 07:54:24;;;;;;;7.53;3.77;;;;;;;;;;5059924;28;20268;-81
2020/12/05 07:57:32;;;;;;;7.27;3.70;;;;;;;;;;5070315;28;20238;-80
2020/12/05 08:00:37;;;;;;;6.60;3.03;;;;;;;;;;5050371;28;20209;-81
2020/12/05 08:04:03;;;;;;;6.70;3.10;;;;;;;;;;5062673;28;20249;-81
2020/12/05 08:07:14;;;;;;;5.83;2.90;;;;;;;;;;5053593;28;20210;-82
2020/12/05 08:10:18;;;;;;;6.57;3.07;;;;;;;;;;5072395;28;20263;-80
2020/12/05 08:13:26;;;;;;;6.20;2.90;;;;;;;;;;5075077;28;20239;-79
2020/12/05 08:16:31;;;;;;;6.87;2.60;;;;;;;;;;5077111;28;20691;-81
2020/12/05 08:19:40;;;;;;;4.43;2.20;;;;;;;;;;5058280;28;21267;-80
2020/12/05 08:22:46;;;;;;;5.57;2.37;;;;;;;;;;5044100;28;20607;-81
2020/12/05 08:25:52;;;;;;;8.53;2.93;;;;;;;;;;5059205;28;20717;-80
2020/12/05 08:28:58;;;;;;;7.83;2.80;;;;;;;;;;5052320;28;20198;-81
2020/12/05 08:32:03;;;;;;;5.17;2.60;;;;;;;;;;5070968;28;20198;-80
2020/12/05 08:35:09;;;;;;;7.77;3.30;;;;;;;;;;5072145;28;20198;-80
2020/12/05 08:38:21;;;;;;;10.70;4.00;;;;;;;;;;5071025;28;20214;-76
2020/12/05 08:41:26;;;;;;;7.60;3.43;;;;;;;;;;5072716;28;20199;-79
2020/12/05 08:44:31;;;;;;;6.43;3.57;;;;;;;;;;5076743;28;20279;-77
2020/12/05 08:47:44;;;;;;;7.73;3.47;;;;;;;;;;5082728;28;20215;-79
2020/12/05 08:50:49;;;;;;;7.13;3.73;;;;;;;;;;5081294;28;20183;-78
2020/12/05 08:54:05;;;;;;;8.90;4.23;;;;;;;;;;5068905;28;20283;-80
2020/12/05 08:57:10;;;;;;;9.33;4.07;;;;;;;;;;5061156;28;20222;-78
2020/12/05 09:00:20;;;;;;;9.93;4.33;;;;;;;;;;5059578;28;20226;-80
2020/12/05 09:03:25;;;;;;;8.70;4.80;;;;;;;;;;5059443;28;20242;-81
2020/12/05 09:06:30;;;;;;;10.87;4.97;;;;;;;;;;5059067;28;20709;-82
2020/12/05 09:09:36;;;;;;;11.63;5.50;;;;;;;;;;5057553;28;20207;-80
2020/12/05 09:12:41;;;;;;;11.03;5.00;;;;;;;;;;5059045;28;20246;-80
2020/12/05 09:15:53;;;;;;;17.10;7.43;;;;;;;;;;5076140;28;20232;-81
2020/12/05 09:18:58;;;;;;;15.20;6.47;;;;;;;;;;5046278;28;20253;-80
2020/12/05 09:22:03;;;;;;;17.47;7.10;;;;;;;;;;5066250;28;20221;-81
2020/12/05 09:25:08;;;;;;;18.33;8.70;;;;;;;;;;5070765;28;20211;-80
2020/12/05 09:28:14;;;;;;;26.90;10.80;;;;;;;;;;5072440;28;20226;-80
2020/12/05 09:31:20;;;;;;;33.83;12.93;;;;;;;;;;5066846;28;20217;-81
2020/12/05 09:34:32;;;;;;;25.13;10.57;;;;;;;;;;5063960;28;20855;-80
2020/12/05 09:37:37;;;;;;;26.23;11.87;;;;;;;;;;5076097;28;20277;-82
2020/12/05 09:40:43;;;;;;;25.30;11.73;;;;;;;;;;5071716;28;20353;-81
2020/12/05 09:43:48;;;;;;;31.17;12.10;;;;;;;;;;5060679;28;20285;-81
2020/12/05 09:46:52;;;;;;;29.53;12.20;;;;;;;;;;5065793;28;20364;-79
2020/12/05 09:49:57;;;;;;;27.33;11.90;;;;;;;;;;5073618;28;20202;-82
2020/12/05 09:53:02;;;;;;;26.83;11.43;;;;;;;;;;5068647;28;20246;-81
2020/12/05 09:56:08;;;;;;;32.10;13.30;;;;;;;;;;5061257;28;20214;-81
2020/12/05 09:59:12;;;;;;;33.80;13.27;;;;;;;;;;5074626;28;20682;-80
2020/12/05 10:02:18;;;;;;;31.33;13.63;;;;;;;;;;5078363;28;20221;-80
2020/12/05 10:05:23;;;;;;;32.87;13.00;;;;;;;;;;5089783;28;20194;-80
2020/12/05 10:08:28;;;;;;;34.30;13.13;;;;;;;;;;5076686;28;20203;-81
2020/12/05 10:11:34;;;;;;;22.93;11.00;;;;;;;;;;5070795;28;20226;-81
2020/12/05 10:14:39;;;;;;;31.47;13.27;;;;;;;;;;5053416;28;20230;-81
2020/12/05 10:17:44;;;;;;;32.40;13.30;;;;;;;;;;5063603;28;20237;-81
2020/12/05 10:20:49;;;;;;;27.70;11.90;;;;;;;;;;5070416;28;20234;-82
2020/12/05 10:23:54;;;;;;;27.30;12.03;;;;;;;;;;5071458;28;20229;-81
2020/12/05 10:26:59;;;;;;;27.90;12.67;;;;;;;;;;5061298;28;20211;-82
2020/12/05 10:30:04;;;;;;;34.43;13.60;;;;;;;;;;5065237;28;20204;-81
2020/12/05 10:33:09;;;;;;;29.33;12.37;;;;;;;;;;5061583;28;20265;-81
2020/12/05 10:36:18;;;;;;;34.03;13.50;;;;;;;;;;5061447;28;20289;-81
2020/12/05 10:39:23;;;;;;;32.73;12.00;;;;;;;;;;5056028;28;20207;-80
2020/12/05 10:42:31;;;;;;;28.63;13.33;;;;;;;;;;5065801;28;20238;-80
2020/12/05 10:45:36;;;;;;;34.13;13.77;;;;;;;;;;5058353;28;20241;-80
2020/12/05 10:48:41;;;;;;;36.30;13.17;;;;;;;;;;5073377;28;20202;-80
2020/12/05 10:51:46;;;;;;;33.80;14.37;;;;;;;;;;5052181;28;20211;-81
2020/12/05 10:54:51;;;;;;;34.33;15.70;;;;;;;;;;5054653;28;20202;-80
2020/12/05 10:57:56;;;;;;;30.83;13.27;;;;;;;;;;5058623;28;20235;-81
2020/12/05 11:01:03;;;;;;;35.83;14.97;;;;;;;;;;5057496;28;20241;-81
2020/12/05 11:04:08;;;;;;;39.87;15.03;;;;;;;;;;5057622;28;20222;-82
2020/12/05 11:07:13;;;;;;;35.63;15.20;;;;;;;;;;5060101;28;20290;-82
2020/12/05 11:10:18;;;;;;;33.20;13.90;;;;;;;;;;5058117;28;20207;-82
2020/12/05 11:13:23;;;;;;;34.80;14.47;;;;;;;;;;5058328;28;20238;-82
2020/12/05 11:16:28;;;;;;;33.83;14.43;;;;;;;;;;5054961;28;20218;-82
2020/12/05 11:19:33;;;;;;;33.77;14.13;;;;;;;;;;5060507;28;20203;-82
2020/12/05 11:22:38;;;;;;;37.30;14.03;;;;;;;;;;5058244;28;20249;-83
2020/12/05 11:25:43;;;;;;;35.83;15.13;;;;;;;;;;5057466;28;20238;-82
2020/12/05 11:28:48;;;;;;;41.53;15.13;;;;;;;;;;5058068;28;20570;-81
2020/12/05 11:31:53;;;;;;;31.10;14.17;;;;;;;;;;5058711;28;20223;-82
2020/12/05 11:34:57;;;;;;;39.30;15.30;;;;;;;;;;5060908;28;20210;-83
2020/12/05 11:38:02;;;;;;;35.80;14.83;;;;;;;;;;5056020;28;20219;-82
2020/12/05 11:41:07;;;;;;;36.93;14.70;;;;;;;;;;5041613;28;20204;-82
2020/12/05 11:44:12;;;;;;;35.60;15.13;;;;;;;;;;5076376;28;20230;-84
2020/12/05 11:47:17;;;;;;;35.20;14.27;;;;;;;;;;5069973;28;20230;-84
2020/12/05 11:50:22;;;;;;;34.43;15.03;;;;;;;;;;5067423;28;20199;-82
2020/12/05 11:53:27;;;;;;;35.63;14.57;;;;;;;;;;5054567;28;20242;-83
2020/12/05 11:56:35;;;;;;;32.20;14.33;;;;;;;;;;5055970;28;20229;-83
2020/12/05 11:59:41;;;;;;;34.37;15.57;;;;;;;;;;5057559;28;20190;-82
2020/12/05 12:02:46;;;;;;;35.13;15.50;;;;;;;;;;5061584;28;20242;-82
2020/12/05 12:05:51;;;;;;;37.23;15.97;;;;;;;;;;5059991;28;20211;-82
2020/12/05 12:08:56;;;;;;;37.60;15.87;;;;;;;;;;5056013;28;20211;-82
2020/12/05 12:12:01;;;;;;;35.67;14.93;;;;;;;;;;5065433;28;20206;-82
2020/12/05 12:15:07;;;;;;;38.30;15.30;;;;;;;;;;5057847;28;20597;-83
2020/12/05 12:18:12;;;;;;;35.67;15.13;;;;;;;;;;5052824;28;20294;-81
2020/12/05 12:21:23;;;;;;;49.00;15.37;;;;;;;;;;5051572;28;20218;-81
2020/12/05 12:24:28;;;;;;;32.30;14.50;;;;;;;;;;5055786;28;21553;-81
2020/12/05 12:27:34;;;;;;;33.93;15.80;;;;;;;;;;5053142;28;20195;-80
2020/12/05 12:30:40;;;;;;;39.13;16.00;;;;;;;;;;5059143;28;20218;-81
2020/12/05 12:33:45;;;;;;;43.70;16.23;;;;;;;;;;5060265;28;20238;-79
2020/12/05 12:36:51;;;;;;;33.97;15.40;;;;;;;;;;5056317;28;20206;-80
2020/12/05 12:39:56;;;;;;;34.07;15.03;;;;;;;;;;5057818;28;20574;-84
2020/12/05 12:43:06;;;;;;;32.57;14.63;;;;;;;;;;5060285;28;20230;-82
2020/12/05 12:46:15;;;;;;;36.73;16.00;;;;;;;;;;5059823;28;20689;-82
2020/12/05 12:49:19;;;;;;;43.53;17.50;;;;;;;;;;5056220;28;20210;-82
2020/12/05 12:52:25;;;;;;;38.97;15.83;;;;;;;;;;5058459;28;20222;-81
2020/12/05 12:55:29;;;;;;;37.63;16.53;;;;;;;;;;5060570;28;20210;-80
2020/12/05 12:58:43;;;;;;;36.20;16.20;;;;;;;;;;5054039;28;20222;-82
2020/12/05 13:01:53;;;;;;;39.57;16.70;;;;;;;;;;5060152;28;20635;-80
2020/12/05 13:04:59;;;;;;;39.97;16.57;;;;;;;;;;5061003;28;20661;-80
2020/12/05 13:08:04;;;;;;;36.67;16.10;;;;;;;;;;5068992;28;20191;-83
2020/12/05 13:11:09;;;;;;;36.80;16.67;;;;;;;;;;5060623;28;20207;-83
2020/12/05 13:14:14;;;;;;;41.67;16.07;;;;;;;;;;5069249;28;20250;-84
2020/12/05 13:17:20;;;;;;;39.67;16.13;;;;;;;;;;5079609;28;20230;-81
2020/12/05 13:20:25;;;;;;;35.27;15.67;;;;;;;;;;5077406;28;20207;-81
2020/12/05 13:23:29;;;;;;;31.93;14.73;;;;;;;;;;5074336;28;20287;-81
2020/12/05 13:26:34;;;;;;;40.17;16.47;;;;;;;;;;5081454;28;20321;-81
2020/12/05 13:29:39;;;;;;;37.53;17.03;;;;;;;;;;5075811;28;20179;-81
2020/12/05 13:32:47;;;;;;;34.87;15.33;;;;;;;;;;5082605;28;20243;-82
2020/12/05 13:35:52;;;;;;;35.80;15.90;;;;;;;;;;5064584;28;20202;-81
2020/12/05 13:38:58;;;;;;;38.70;16.40;;;;;;;;;;5067850;28;20219;-81
2020/12/05 13:42:03;;;;;;;38.03;16.37;;;;;;;;;;5070452;28;20202;-83
2020/12/05 13:45:09;;;;;;;39.57;16.70;;;;;;;;;;5049667;28;20203;-82
2020/12/05 13:48:14;;;;;;;41.90;16.03;;;;;;;;;;5065475;28;20203;-82
2020/12/05 13:51:21;;;;;;;39.23;16.43;;;;;;;;;;5067575;28;20191;-81
2020/12/05 13:54:25;;;;;;;38.50;16.80;;;;;;;;;;5074250;28;20182;-81
2020/12/05 13:57:30;;;;;;;40.27;16.60;;;;;;;;;;5077228;28;20175;-81
2020/12/05 14:00:35;;;;;;;35.03;16.03;;;;;;;;;;5063579;28;20271;-81
2020/12/05 14:03:42;;;;;;;46.93;18.73;;;;;;;;;;5072956;28;20262;-82
2020/12/05 14:06:47;;;;;;;39.87;17.13;;;;;;;;;;5074604;28;20206;-80
2020/12/05 14:09:52;;;;;;;35.10;16.13;;;;;;;;;;5070323;28;20190;-80
2020/12/05 14:12:57;;;;;;;40.57;16.47;;;;;;;;;;5062596;28;20251;-81
2020/12/05 14:16:02;;;;;;;40.40;17.23;;;;;;;;;;5065911;28;20202;-81
2020/12/05 14:19:08;;;;;;;37.70;16.67;;;;;;;;;;5070824;28;20235;-80
2020/12/05 14:22:13;;;;;;;40.33;16.50;;;;;;;;;;5068270;28;20203;-80
2020/12/05 14:25:18;;;;;;;37.30;17.00;;;;;;;;;;5069974;28;20203;-82
2020/12/05 14:28:25;;;;;;;37.67;15.93;;;;;;;;;;5053852;28;20242;-82
2020/12/05 14:31:30;;;;;;;42.30;16.67;;;;;;;;;;5064500;28;20206;-84
2020/12/05 14:34:35;;;;;;;50.50;20.20;;;;;;;;;;5058148;28;20207;-77
2020/12/05 14:37:40;;;;;;;55.23;22.67;;;;;;;;;;5050047;28;20294;-77
2020/12/05 14:40:45;;;;;;;57.60;24.23;;;;;;;;;;5064112;28;20329;-81
2020/12/05 14:43:50;;;;;;;63.73;25.13;;;;;;;;;;5060857;28;20264;-77
2020/12/05 14:46:56;;;;;;;53.33;22.50;;;;;;;;;;5058018;28;20187;-78
2020/12/05 14:50:02;;;;;;;40.10;17.73;;;;;;;;;;5068354;28;20198;-81
2020/12/05 14:53:06;;;;;;;42.63;16.83;;;;;;;;;;5062431;28;20296;-82
2020/12/05 14:56:13;;;;;;;36.70;16.13;;;;;;;;;;5050775;28;20256;-80
2020/12/05 14:59:18;;;;;;;39.23;17.60;;;;;;;;;;5052452;28;20319;-80
2020/12/05 15:02:23;;;;;;;40.30;17.63;;;;;;;;;;5072083;28;20253;-80
2020/12/05 15:05:29;;;;;;;39.73;16.93;;;;;;;;;;5059767;28;20210;-79
2020/12/05 15:08:34;;;;;;;36.00;16.47;;;;;;;;;;5068272;28;20283;-80
2020/12/05 15:11:39;;;;;;;39.80;16.60;;;;;;;;;;5064187;28;20222;-81
2020/12/05 15:14:47;;;;;;;40.93;16.00;;;;;;;;;;5065893;28;20237;-81
2020/12/05 15:17:52;;;;;;;36.13;17.00;;;;;;;;;;5061868;28;20210;-77
2020/12/05 15:20:58;;;;;;;37.97;16.60;;;;;;;;;;5045862;28;20218;-77
2020/12/05 15:24:07;;;;;;;37.50;15.43;;;;;;;;;;5058509;28;20234;-77
2020/12/05 15:27:12;;;;;;;48.50;20.70;;;;;;;;;;5033959;28;20643;-76
2020/12/05 15:30:21;;;;;;;55.17;21.80;;;;;;;;;;5057630;28;20230;-77
2020/12/05 15:33:26;;;;;;;54.73;20.83;;;;;;;;;;5059983;28;20227;-77
2020/12/05 15:36:32;;;;;;;74.60;27.73;;;;;;;;;;5076976;28;20198;-77
2020/12/05 15:39:46;;;;;;;60.73;23.03;;;;;;;;;;5067419;28;20234;-75
2020/12/05 15:43:00;;;;;;;48.47;20.07;;;;;;;;;;5063358;28;20231;-77
2020/12/05 15:46:06;;;;;;;51.87;20.63;;;;;;;;;;5053642;28;20585;-76
2020/12/05 15:49:11;;;;;;;46.57;19.60;;;;;;;;;;5051653;28;20211;-78
2020/12/05 15:52:17;;;;;;;45.17;19.90;;;;;;;;;;5064453;28;20207;-78
2020/12/05 15:55:21;;;;;;;43.43;18.23;;;;;;;;;;5058284;28;20218;-76
2020/12/05 15:58:26;;;;;;;43.07;17.77;;;;;;;;;;5052308;28;20230;-77
2020/12/05 16:01:30;;;;;;;46.63;19.07;;;;;;;;;;5051600;28;20206;-76
2020/12/05 16:04:35;;;;;;;67.43;26.87;;;;;;;;;;5053569;28;20230;-78
2020/12/05 16:07:41;;;;;;;40.73;19.07;;;;;;;;;;5066246;28;20259;-77
2020/12/05 16:10:46;;;;;;;41.80;18.20;;;;;;;;;;5055801;28;20215;-76
2020/12/05 16:13:50;;;;;;;42.90;18.60;;;;;;;;;;5051927;28;20290;-76
2020/12/05 16:16:55;;;;;;;43.80;17.93;;;;;;;;;;5054682;28;20293;-76
2020/12/05 16:20:00;;;;;;;44.50;18.07;;;;;;;;;;5063674;28;20245;-77
2020/12/05 16:23:06;;;;;;;42.03;17.67;;;;;;;;;;5051003;28;20234;-76
2020/12/05 16:26:12;;;;;;;43.93;17.77;;;;;;;;;;5056134;28;20207;-76
2020/12/05 16:29:17;;;;;;;43.73;19.17;;;;;;;;;;5051639;28;20215;-77
2020/12/05 16:32:21;;;;;;;53.37;24.37;;;;;;;;;;5057151;28;20296;-76
2020/12/05 16:35:26;;;;;;;53.57;22.20;;;;;;;;;;5065115;28;20210;-78
2020/12/05 16:38:31;;;;;;;53.87;23.27;;;;;;;;;;5060271;28;20234;-76
2020/12/05 16:41:36;;;;;;;46.10;21.03;;;;;;;;;;5056268;28;20215;-77
2020/12/05 16:44:41;;;;;;;45.23;20.70;;;;;;;;;;5071280;28;20269;-78
2020/12/05 16:47:46;;;;;;;56.83;22.27;;;;;;;;;;5063173;28;20302;-76
2020/12/05 16:50:51;;;;;;;112.63;36.67;;;;;;;;;;5055475;28;20234;-76
2020/12/05 16:53:57;;;;;;;59.70;23.03;;;;;;;;;;5061031;28;20708;-77
2020/12/05 16:57:01;;;;;;;51.07;21.60;;;;;;;;;;5058333;28;20297;-77
2020/12/05 17:00:06;;;;;;;56.87;21.03;;;;;;;;;;5059966;28;20249;-78
2020/12/05 17:03:11;;;;;;;55.43;22.53;;;;;;;;;;5055453;28;20253;-78
2020/12/05 17:06:16;;;;;;;53.83;21.03;;;;;;;;;;5055652;28;20249;-77
2020/12/05 17:09:22;;;;;;;61.90;23.20;;;;;;;;;;5055468;28;20211;-78
2020/12/05 17:12:27;;;;;;;52.30;21.40;;;;;;;;;;5055086;28;20585;-77
2020/12/05 17:15:31;;;;;;;51.10;21.00;;;;;;;;;;5051250;28;20194;-77
2020/12/05 17:18:36;;;;;;;54.30;22.53;;;;;;;;;;5058552;28;20705;-77
2020/12/05 17:21:41;;;;;;;55.47;22.97;;;;;;;;;;5054323;28;20206;-77
2020/12/05 17:24:47;;;;;;;57.00;23.33;;;;;;;;;;5066032;28;20202;-77
2020/12/05 17:27:52;;;;;;;55.47;21.83;;;;;;;;;;5040172;28;20214;-77
2020/12/05 17:30:57;;;;;;;57.83;21.20;;;;;;;;;;5056353;28;20574;-78
2020/12/05 17:34:02;;;;;;;57.10;22.23;;;;;;;;;;5071347;28;20225;-78
2020/12/05 17:37:09;;;;;;;50.37;21.93;;;;;;;;;;5080429;28;20195;-78
2020/12/05 17:40:15;;;;;;;59.53;23.40;;;;;;;;;;5075170;28;20325;-78
2020/12/05 17:43:20;;;;;;;410.23;91.33;;;;;;;;;;5055175;28;20230;-77
2020/12/05 17:46:25;;;;;;;550.87;129.83;;;;;;;;;;5064787;28;20233;-76
2020/12/05 17:49:30;;;;;;;328.67;78.40;;;;;;;;;;5080471;28;20214;-79
2020/12/05 17:52:35;;;;;;;159.40;45.10;;;;;;;;;;5060250;28;20254;-79
2020/12/05 17:55:41;;;;;;;176.80;48.17;;;;;;;;;;5075861;28;20245;-78
2020/12/05 17:58:46;;;;;;;121.60;39.40;;;;;;;;;;5057848;28;20218;-79
2020/12/05 18:01:53;;;;;;;72.40;27.63;;;;;;;;;;5045259;28;20193;-78
2020/12/05 18:04:57;;;;;;;54.50;21.03;;;;;;;;;;5071443;28;20226;-78
2020/12/05 18:08:02;;;;;;;59.10;20.83;;;;;;;;;;5054937;28;20210;-78
2020/12/05 18:11:08;;;;;;;62.73;22.97;;;;;;;;;;5053624;28;20199;-78
2020/12/05 18:14:12;;;;;;;64.33;23.70;;;;;;;;;;5056915;28;20234;-79
2020/12/05 18:17:17;;;;;;;54.13;20.43;;;;;;;;;;5054908;28;20195;-78